sensor_id;sensor_type;location;lat;lon;timestamp;P1;durP1;ratioP1;P2;durP2;ratioP2
1380;SDS011;684;48.342;10.096;2023-02-28T00:02:26;8.17;;;4.10;;
1380;SDS011;684;48.342;10.096;2023-02-28T00:04:52;9.03;;;4.63;;
1380;SDS011;684;48.342;10.096;2023-02-28T00:07:26;9.90;;;4.37;;
1380;SDS011;684;48.342;10.096;2023-02-28T00:09:52;7.27;;;3.53;;
1380;SDS011;684;48.342;10.096;2023-02-28T00:12:19;6.70;;;3.97;;
1380;SDS011;684;48.342;10.096;2023-02-28T00:14:46;6.83;;;3.60;;
1380;SDS011;684;48.342;10.096;2023-02-28T00:17:13;6.50;;;3.37;;
1380;SDS011;684;48.342;10.096;2023-02-28T00:19:41;6.97;;;4.13;;
1380;SDS011;684;48.342;10.096;2023-02-28T00:22:08;6.70;;;3.23;;
1380;SDS011;684;48.342;10.096;2023-02-28T00:24:34;8.43;;;4.43;;
1380;SDS011;684;48.342;10.096;2023-02-28T00:27:01;6.37;;;4.13;;
1380;SDS011;684;48.342;10.096;2023-02-28T00:29:28;7.97;;;3.63;;
1380;SDS011;684;48.342;10.096;2023-02-28T00:31:55;7.00;;;3.90;;
1380;SDS011;684;48.342;10.096;2023-02-28T00:34:21;7.97;;;3.83;;
1380;SDS011;684;48.342;10.096;2023-02-28T00:36:49;7.17;;;3.50;;
1380;SDS011;684;48.342;10.096;2023-02-28T00:39:16;7.50;;;3.33;;
1380;SDS011;684;48.342;10.096;2023-02-28T00:41:43;6.80;;;3.80;;
1380;SDS011;684;48.342;10.096;2023-02-28T00:44:09;7.10;;;3.40;;
1380;SDS011;684;48.342;10.096;2023-02-28T00:46:36;7.20;;;3.50;;
1380;SDS011;684;48.342;10.096;2023-02-28T00:49:03;7.67;;;4.23;;
1380;SDS011;684;48.342;10.096;2023-02-28T00:51:30;7.40;;;3.40;;
1380;SDS011;684;48.342;10.096;2023-02-28T00:53:58;7.70;;;3.43;;
1380;SDS011;684;48.342;10.096;2023-02-28T00:56:24;7.90;;;4.00;;
1380;SDS011;684;48.342;10.096;2023-02-28T00:58:51;7.20;;;3.60;;
1380;SDS011;684;48.342;10.096;2023-02-28T01:01:18;5.90;;;3.43;;
1380;SDS011;684;48.342;10.096;2023-02-28T01:03:45;7.87;;;3.67;;
1380;SDS011;684;48.342;10.096;2023-02-28T01:06:11;6.80;;;3.87;;
1380;SDS011;684;48.342;10.096;2023-02-28T01:08:38;6.83;;;3.10;;
1380;SDS011;684;48.342;10.096;2023-02-28T01:11:09;6.73;;;4.13;;
1380;SDS011;684;48.342;10.096;2023-02-28T01:13:37;7.37;;;4.27;;
1380;SDS011;684;48.342;10.096;2023-02-28T01:16:05;7.37;;;4.27;;
1380;SDS011;684;48.342;10.096;2023-02-28T01:18:32;7.67;;;3.87;;
1380;SDS011;684;48.342;10.096;2023-02-28T01:21:02;9.27;;;3.93;;
1380;SDS011;684;48.342;10.096;2023-02-28T01:23:29;6.80;;;3.20;;
1380;SDS011;684;48.342;10.096;2023-02-28T01:25:57;7.20;;;3.87;;
1380;SDS011;684;48.342;10.096;2023-02-28T01:28:25;6.50;;;3.00;;
1380;SDS011;684;48.342;10.096;2023-02-28T01:30:51;8.70;;;4.30;;
1380;SDS011;684;48.342;10.096;2023-02-28T01:33:18;7.03;;;3.23;;
1380;SDS011;684;48.342;10.096;2023-02-28T01:35:46;5.90;;;3.33;;
1380;SDS011;684;48.342;10.096;2023-02-28T01:38:13;7.73;;;3.40;;
1380;SDS011;684;48.342;10.096;2023-02-28T01:40:39;7.40;;;4.00;;
1380;SDS011;684;48.342;10.096;2023-02-28T01:43:09;12.33;;;3.90;;
1380;SDS011;684;48.342;10.096;2023-02-28T01:45:47;6.97;;;3.80;;
1380;SDS011;684;48.342;10.096;2023-02-28T01:48:14;8.10;;;5.20;;
1380;SDS011;684;48.342;10.096;2023-02-28T01:50:42;7.27;;;4.07;;
1380;SDS011;684;48.342;10.096;2023-02-28T01:53:12;9.50;;;4.50;;
1380;SDS011;684;48.342;10.096;2023-02-28T01:55:42;7.70;;;3.60;;
1380;SDS011;684;48.342;10.096;2023-02-28T01:58:14;7.30;;;4.50;;
1380;SDS011;684;48.342;10.096;2023-02-28T02:00:41;6.73;;;3.53;;
1380;SDS011;684;48.342;10.096;2023-02-28T02:03:10;6.20;;;3.60;;
1380;SDS011;684;48.342;10.096;2023-02-28T02:05:40;10.70;;;3.90;;
1380;SDS011;684;48.342;10.096;2023-02-28T02:08:12;10.03;;;4.60;;
1380;SDS011;684;48.342;10.096;2023-02-28T02:10:43;10.80;;;4.40;;
1380;SDS011;684;48.342;10.096;2023-02-28T02:16:08;9.00;;;4.53;;
1380;SDS011;684;48.342;10.096;2023-02-28T02:18:48;9.13;;;3.90;;
1380;SDS011;684;48.342;10.096;2023-02-28T02:30:35;9.07;;;3.70;;
1380;SDS011;684;48.342;10.096;2023-02-28T02:33:22;7.50;;;3.90;;
1380;SDS011;684;48.342;10.096;2023-02-28T02:36:07;8.07;;;4.20;;
1380;SDS011;684;48.342;10.096;2023-02-28T02:38:42;7.93;;;4.33;;
1380;SDS011;684;48.342;10.096;2023-02-28T02:41:16;6.70;;;3.70;;
1380;SDS011;684;48.342;10.096;2023-02-28T02:43:50;7.50;;;3.93;;
1380;SDS011;684;48.342;10.096;2023-02-28T02:46:19;9.40;;;4.53;;
1380;SDS011;684;48.342;10.096;2023-02-28T02:48:47;7.03;;;4.00;;
1380;SDS011;684;48.342;10.096;2023-02-28T02:51:17;7.70;;;4.20;;
1380;SDS011;684;48.342;10.096;2023-02-28T02:53:48;7.37;;;4.07;;
1380;SDS011;684;48.342;10.096;2023-02-28T02:56:19;7.23;;;3.97;;
1380;SDS011;684;48.342;10.096;2023-02-28T02:58:49;7.13;;;4.23;;
1380;SDS011;684;48.342;10.096;2023-02-28T03:01:18;7.73;;;3.60;;
1380;SDS011;684;48.342;10.096;2023-02-28T03:03:52;9.60;;;4.43;;
1380;SDS011;684;48.342;10.096;2023-02-28T03:06:22;8.10;;;4.47;;
1380;SDS011;684;48.342;10.096;2023-02-28T03:08:49;9.20;;;4.47;;
1380;SDS011;684;48.342;10.096;2023-02-28T03:11:16;7.40;;;4.33;;
1380;SDS011;684;48.342;10.096;2023-02-28T03:13:57;9.57;;;4.10;;
1380;SDS011;684;48.342;10.096;2023-02-28T03:16:35;9.83;;;4.70;;
1380;SDS011;684;48.342;10.096;2023-02-28T03:22:04;8.57;;;3.97;;
1380;SDS011;684;48.342;10.096;2023-02-28T03:24:42;10.20;;;4.50;;
1380;SDS011;684;48.342;10.096;2023-02-28T03:27:16;8.30;;;4.67;;
1380;SDS011;684;48.342;10.096;2023-02-28T03:29:50;7.40;;;4.30;;
1380;SDS011;684;48.342;10.096;2023-02-28T03:32:21;9.43;;;5.00;;
1380;SDS011;684;48.342;10.096;2023-02-28T03:34:54;7.90;;;3.93;;
1380;SDS011;684;48.342;10.096;2023-02-28T03:37:26;8.37;;;4.70;;
1380;SDS011;684;48.342;10.096;2023-02-28T03:39:56;9.53;;;4.83;;
1380;SDS011;684;48.342;10.096;2023-02-28T03:42:27;7.13;;;4.20;;
1380;SDS011;684;48.342;10.096;2023-02-28T03:44:56;8.13;;;4.73;;
1380;SDS011;684;48.342;10.096;2023-02-28T03:47:27;7.67;;;4.67;;
1380;SDS011;684;48.342;10.096;2023-02-28T03:49:57;8.60;;;4.80;;
1380;SDS011;684;48.342;10.096;2023-02-28T03:52:31;8.67;;;4.53;;
1380;SDS011;684;48.342;10.096;2023-02-28T03:55:01;8.70;;;5.23;;
1380;SDS011;684;48.342;10.096;2023-02-28T03:57:34;7.53;;;4.63;;
1380;SDS011;684;48.342;10.096;2023-02-28T04:00:07;8.33;;;5.20;;
1380;SDS011;684;48.342;10.096;2023-02-28T04:02:38;8.40;;;4.90;;
1380;SDS011;684;48.342;10.096;2023-02-28T04:05:05;13.20;;;4.87;;
1380;SDS011;684;48.342;10.096;2023-02-28T04:07:34;8.23;;;4.93;;
1380;SDS011;684;48.342;10.096;2023-02-28T04:10:01;9.23;;;4.53;;
1380;SDS011;684;48.342;10.096;2023-02-28T04:12:27;9.70;;;5.07;;
1380;SDS011;684;48.342;10.096;2023-02-28T04:14:54;8.87;;;5.30;;
1380;SDS011;684;48.342;10.096;2023-02-28T04:17:21;8.43;;;5.03;;
1380;SDS011;684;48.342;10.096;2023-02-28T04:19:48;9.37;;;4.83;;
1380;SDS011;684;48.342;10.096;2023-02-28T04:22:15;9.73;;;6.83;;
1380;SDS011;684;48.342;10.096;2023-02-28T04:24:44;9.70;;;5.30;;
1380;SDS011;684;48.342;10.096;2023-02-28T04:27:10;9.23;;;5.63;;
1380;SDS011;684;48.342;10.096;2023-02-28T04:29:37;8.13;;;5.13;;
1380;SDS011;684;48.342;10.096;2023-02-28T04:32:04;11.80;;;7.10;;
1380;SDS011;684;48.342;10.096;2023-02-28T04:34:31;10.20;;;6.17;;
1380;SDS011;684;48.342;10.096;2023-02-28T04:36:58;9.17;;;5.53;;
1380;SDS011;684;48.342;10.096;2023-02-28T04:39:25;9.07;;;5.03;;
1380;SDS011;684;48.342;10.096;2023-02-28T04:41:53;10.10;;;6.20;;
1380;SDS011;684;48.342;10.096;2023-02-28T04:44:20;8.57;;;5.60;;
1380;SDS011;684;48.342;10.096;2023-02-28T04:46:48;9.67;;;5.90;;
1380;SDS011;684;48.342;10.096;2023-02-28T04:49:15;9.60;;;5.90;;
1380;SDS011;684;48.342;10.096;2023-02-28T04:51:42;10.00;;;5.80;;
1380;SDS011;684;48.342;10.096;2023-02-28T04:54:09;10.90;;;6.10;;
1380;SDS011;684;48.342;10.096;2023-02-28T04:56:36;11.90;;;6.07;;
1380;SDS011;684;48.342;10.096;2023-02-28T04:59:04;11.00;;;6.53;;
1380;SDS011;684;48.342;10.096;2023-02-28T05:01:31;11.93;;;6.67;;
1380;SDS011;684;48.342;10.096;2023-02-28T05:04:00;9.57;;;6.03;;
1380;SDS011;684;48.342;10.096;2023-02-28T05:06:28;9.97;;;5.87;;
1380;SDS011;684;48.342;10.096;2023-02-28T05:08:56;10.80;;;6.23;;
1380;SDS011;684;48.342;10.096;2023-02-28T05:11:24;10.50;;;6.23;;
1380;SDS011;684;48.342;10.096;2023-02-28T05:13:54;9.47;;;6.60;;
1380;SDS011;684;48.342;10.096;2023-02-28T05:16:22;13.33;;;8.13;;
1380;SDS011;684;48.342;10.096;2023-02-28T05:18:49;11.80;;;6.30;;
1380;SDS011;684;48.342;10.096;2023-02-28T05:21:23;11.47;;;6.93;;
1380;SDS011;684;48.342;10.096;2023-02-28T05:23:52;11.20;;;7.00;;
1380;SDS011;684;48.342;10.096;2023-02-28T05:26:20;11.30;;;7.23;;
1380;SDS011;684;48.342;10.096;2023-02-28T05:28:47;10.43;;;6.30;;
1380;SDS011;684;48.342;10.096;2023-02-28T05:31:13;12.47;;;7.10;;
1380;SDS011;684;48.342;10.096;2023-02-28T05:33:41;11.50;;;6.93;;
1380;SDS011;684;48.342;10.096;2023-02-28T05:36:08;13.07;;;6.90;;
1380;SDS011;684;48.342;10.096;2023-02-28T05:38:35;9.30;;;6.17;;
1380;SDS011;684;48.342;10.096;2023-02-28T05:41:04;13.10;;;6.60;;
1380;SDS011;684;48.342;10.096;2023-02-28T05:43:32;10.50;;;6.80;;
1380;SDS011;684;48.342;10.096;2023-02-28T05:45:59;9.60;;;6.27;;
1380;SDS011;684;48.342;10.096;2023-02-28T05:48:27;12.87;;;7.57;;
1380;SDS011;684;48.342;10.096;2023-02-28T05:50:55;11.50;;;6.60;;
1380;SDS011;684;48.342;10.096;2023-02-28T05:53:23;13.33;;;6.70;;
1380;SDS011;684;48.342;10.096;2023-02-28T05:55:51;12.87;;;6.80;;
1380;SDS011;684;48.342;10.096;2023-02-28T05:58:17;14.03;;;7.77;;
1380;SDS011;684;48.342;10.096;2023-02-28T06:00:44;11.07;;;7.10;;
1380;SDS011;684;48.342;10.096;2023-02-28T06:03:11;12.33;;;7.27;;
1380;SDS011;684;48.342;10.096;2023-02-28T06:05:38;14.57;;;9.40;;
1380;SDS011;684;48.342;10.096;2023-02-28T06:08:06;12.40;;;8.60;;
1380;SDS011;684;48.342;10.096;2023-02-28T06:10:33;11.10;;;6.90;;
1380;SDS011;684;48.342;10.096;2023-02-28T06:13:00;14.57;;;8.30;;
1380;SDS011;684;48.342;10.096;2023-02-28T06:15:28;12.03;;;6.97;;
1380;SDS011;684;48.342;10.096;2023-02-28T06:17:55;17.60;;;8.00;;
1380;SDS011;684;48.342;10.096;2023-02-28T06:20:22;11.90;;;6.93;;
1380;SDS011;684;48.342;10.096;2023-02-28T06:22:51;12.13;;;6.50;;
1380;SDS011;684;48.342;10.096;2023-02-28T06:25:20;12.27;;;7.60;;
1380;SDS011;684;48.342;10.096;2023-02-28T06:27:47;12.53;;;7.77;;
1380;SDS011;684;48.342;10.096;2023-02-28T06:30:14;10.50;;;7.10;;
1380;SDS011;684;48.342;10.096;2023-02-28T06:32:41;14.27;;;8.50;;
1380;SDS011;684;48.342;10.096;2023-02-28T06:35:08;18.33;;;8.27;;
1380;SDS011;684;48.342;10.096;2023-02-28T06:37:35;11.17;;;6.80;;
1380;SDS011;684;48.342;10.096;2023-02-28T06:40:02;12.80;;;8.07;;
1380;SDS011;684;48.342;10.096;2023-02-28T06:42:33;13.07;;;7.57;;
1380;SDS011;684;48.342;10.096;2023-02-28T06:45:00;13.57;;;8.87;;
1380;SDS011;684;48.342;10.096;2023-02-28T06:47:34;12.53;;;8.10;;
1380;SDS011;684;48.342;10.096;2023-02-28T06:50:01;12.40;;;8.57;;
1380;SDS011;684;48.342;10.096;2023-02-28T06:52:27;13.40;;;9.07;;
1380;SDS011;684;48.342;10.096;2023-02-28T06:54:54;14.30;;;8.53;;
1380;SDS011;684;48.342;10.096;2023-02-28T06:57:27;14.00;;;9.10;;
1380;SDS011;684;48.342;10.096;2023-02-28T06:59:57;16.20;;;9.00;;
1380;SDS011;684;48.342;10.096;2023-02-28T07:02:24;15.90;;;8.70;;
1380;SDS011;684;48.342;10.096;2023-02-28T07:04:50;14.27;;;9.17;;
1380;SDS011;684;48.342;10.096;2023-02-28T07:07:17;15.80;;;8.63;;
1380;SDS011;684;48.342;10.096;2023-02-28T07:09:44;13.93;;;9.17;;
1380;SDS011;684;48.342;10.096;2023-02-28T07:12:10;15.73;;;8.63;;
1380;SDS011;684;48.342;10.096;2023-02-28T07:14:37;15.50;;;9.30;;
1380;SDS011;684;48.342;10.096;2023-02-28T07:17:07;16.17;;;9.73;;
1380;SDS011;684;48.342;10.096;2023-02-28T07:19:35;12.80;;;7.80;;
1380;SDS011;684;48.342;10.096;2023-02-28T07:22:02;15.00;;;9.80;;
1380;SDS011;684;48.342;10.096;2023-02-28T07:24:29;17.03;;;8.73;;
1380;SDS011;684;48.342;10.096;2023-02-28T07:26:56;12.87;;;8.27;;
1380;SDS011;684;48.342;10.096;2023-02-28T07:29:24;13.03;;;8.43;;
1380;SDS011;684;48.342;10.096;2023-02-28T07:31:51;13.27;;;8.43;;
1380;SDS011;684;48.342;10.096;2023-02-28T07:34:19;15.10;;;9.00;;
1380;SDS011;684;48.342;10.096;2023-02-28T07:36:46;14.47;;;8.77;;
1380;SDS011;684;48.342;10.096;2023-02-28T07:39:13;15.00;;;8.93;;
1380;SDS011;684;48.342;10.096;2023-02-28T07:41:39;14.60;;;8.90;;
1380;SDS011;684;48.342;10.096;2023-02-28T07:44:08;14.27;;;8.80;;
1380;SDS011;684;48.342;10.096;2023-02-28T07:46:35;23.07;;;9.63;;
1380;SDS011;684;48.342;10.096;2023-02-28T07:49:02;16.70;;;9.17;;
1380;SDS011;684;48.342;10.096;2023-02-28T07:51:30;13.90;;;9.93;;
1380;SDS011;684;48.342;10.096;2023-02-28T07:53:57;14.00;;;9.57;;
1380;SDS011;684;48.342;10.096;2023-02-28T07:56:24;14.80;;;9.50;;
1380;SDS011;684;48.342;10.096;2023-02-28T07:58:51;13.63;;;8.67;;
1380;SDS011;684;48.342;10.096;2023-02-28T08:01:18;17.50;;;11.30;;
1380;SDS011;684;48.342;10.096;2023-02-28T08:03:45;15.37;;;9.90;;
1380;SDS011;684;48.342;10.096;2023-02-28T08:06:15;15.03;;;9.70;;
1380;SDS011;684;48.342;10.096;2023-02-28T08:08:44;14.90;;;9.73;;
1380;SDS011;684;48.342;10.096;2023-02-28T08:11:11;15.93;;;8.57;;
1380;SDS011;684;48.342;10.096;2023-02-28T08:13:38;19.33;;;12.37;;
1380;SDS011;684;48.342;10.096;2023-02-28T08:16:07;12.73;;;8.77;;
1380;SDS011;684;48.342;10.096;2023-02-28T08:18:34;14.03;;;8.70;;
1380;SDS011;684;48.342;10.096;2023-02-28T08:21:05;14.60;;;9.70;;
1380;SDS011;684;48.342;10.096;2023-02-28T08:23:32;15.50;;;9.40;;
1380;SDS011;684;48.342;10.096;2023-02-28T08:26:01;14.20;;;9.20;;
1380;SDS011;684;48.342;10.096;2023-02-28T08:28:28;17.23;;;9.90;;
1380;SDS011;684;48.342;10.096;2023-02-28T08:30:56;15.50;;;9.60;;
1380;SDS011;684;48.342;10.096;2023-02-28T08:33:23;15.07;;;9.23;;
1380;SDS011;684;48.342;10.096;2023-02-28T08:35:52;16.37;;;9.30;;
1380;SDS011;684;48.342;10.096;2023-02-28T08:38:20;14.30;;;9.23;;
1380;SDS011;684;48.342;10.096;2023-02-28T08:40:47;15.57;;;8.77;;
1380;SDS011;684;48.342;10.096;2023-02-28T08:43:15;14.13;;;9.73;;
1380;SDS011;684;48.342;10.096;2023-02-28T08:45:42;16.57;;;10.47;;
1380;SDS011;684;48.342;10.096;2023-02-28T08:48:08;14.67;;;9.43;;
1380;SDS011;684;48.342;10.096;2023-02-28T08:50:35;16.23;;;10.50;;
1380;SDS011;684;48.342;10.096;2023-02-28T08:53:02;17.50;;;10.00;;
1380;SDS011;684;48.342;10.096;2023-02-28T08:55:28;16.23;;;10.87;;
1380;SDS011;684;48.342;10.096;2023-02-28T08:57:55;15.67;;;10.23;;
1380;SDS011;684;48.342;10.096;2023-02-28T09:00:24;15.97;;;10.30;;
1380;SDS011;684;48.342;10.096;2023-02-28T09:02:51;12.90;;;9.67;;
1380;SDS011;684;48.342;10.096;2023-02-28T09:05:19;17.43;;;10.27;;
1380;SDS011;684;48.342;10.096;2023-02-28T09:07:46;18.50;;;10.57;;
1380;SDS011;684;48.342;10.096;2023-02-28T09:10:13;14.60;;;10.13;;
1380;SDS011;684;48.342;10.096;2023-02-28T09:12:40;15.77;;;10.40;;
1380;SDS011;684;48.342;10.096;2023-02-28T09:15:08;29.40;;;10.40;;
1380;SDS011;684;48.342;10.096;2023-02-28T09:17:36;17.30;;;11.00;;
1380;SDS011;684;48.342;10.096;2023-02-28T09:20:04;16.13;;;11.17;;
1380;SDS011;684;48.342;10.096;2023-02-28T09:22:31;15.77;;;11.33;;
1380;SDS011;684;48.342;10.096;2023-02-28T09:24:58;16.43;;;9.80;;
1380;SDS011;684;48.342;10.096;2023-02-28T09:27:25;13.30;;;8.90;;
1380;SDS011;684;48.342;10.096;2023-02-28T09:29:52;15.13;;;10.13;;
1380;SDS011;684;48.342;10.096;2023-02-28T09:32:18;15.10;;;9.33;;
1380;SDS011;684;48.342;10.096;2023-02-28T09:34:47;16.30;;;10.77;;
1380;SDS011;684;48.342;10.096;2023-02-28T09:37:13;18.57;;;11.10;;
1380;SDS011;684;48.342;10.096;2023-02-28T09:39:40;18.53;;;11.37;;
1380;SDS011;684;48.342;10.096;2023-02-28T09:42:12;15.63;;;10.70;;
1380;SDS011;684;48.342;10.096;2023-02-28T09:44:46;15.27;;;9.17;;
1380;SDS011;684;48.342;10.096;2023-02-28T09:47:17;15.40;;;10.70;;
1380;SDS011;684;48.342;10.096;2023-02-28T09:49:53;16.87;;;10.50;;
1380;SDS011;684;48.342;10.096;2023-02-28T09:52:23;14.70;;;9.90;;
1380;SDS011;684;48.342;10.096;2023-02-28T09:54:54;14.40;;;9.97;;
1380;SDS011;684;48.342;10.096;2023-02-28T09:57:24;16.37;;;10.83;;
1380;SDS011;684;48.342;10.096;2023-02-28T10:00:01;17.60;;;11.30;;
1380;SDS011;684;48.342;10.096;2023-02-28T10:05:48;15.27;;;10.17;;
1380;SDS011;684;48.342;10.096;2023-02-28T10:08:19;15.83;;;11.30;;
1380;SDS011;684;48.342;10.096;2023-02-28T10:10:51;15.60;;;11.10;;
1380;SDS011;684;48.342;10.096;2023-02-28T10:13:23;18.83;;;10.40;;
1380;SDS011;684;48.342;10.096;2023-02-28T10:15:53;16.70;;;11.27;;
1380;SDS011;684;48.342;10.096;2023-02-28T10:18:24;15.13;;;9.33;;
1380;SDS011;684;48.342;10.096;2023-02-28T10:20:58;14.50;;;8.67;;
1380;SDS011;684;48.342;10.096;2023-02-28T10:23:26;14.80;;;10.43;;
1380;SDS011;684;48.342;10.096;2023-02-28T10:25:58;15.83;;;11.30;;
1380;SDS011;684;48.342;10.096;2023-02-28T10:28:26;17.20;;;9.93;;
1380;SDS011;684;48.342;10.096;2023-02-28T10:30:55;16.47;;;11.10;;
1380;SDS011;684;48.342;10.096;2023-02-28T10:33:23;13.23;;;9.00;;
1380;SDS011;684;48.342;10.096;2023-02-28T10:35:52;17.30;;;10.97;;
1380;SDS011;684;48.342;10.096;2023-02-28T10:38:21;16.10;;;10.80;;
1380;SDS011;684;48.342;10.096;2023-02-28T10:40:50;16.40;;;9.50;;
1380;SDS011;684;48.342;10.096;2023-02-28T10:43:18;13.97;;;10.13;;
1380;SDS011;684;48.342;10.096;2023-02-28T10:45:53;15.77;;;10.30;;
1380;SDS011;684;48.342;10.096;2023-02-28T10:48:36;20.33;;;10.17;;
1380;SDS011;684;48.342;10.096;2023-02-28T10:51:05;16.03;;;9.53;;
1380;SDS011;684;48.342;10.096;2023-02-28T10:53:35;14.37;;;9.70;;
1380;SDS011;684;48.342;10.096;2023-02-28T10:56:06;15.97;;;11.10;;
1380;SDS011;684;48.342;10.096;2023-02-28T10:58:45;17.90;;;9.90;;
1380;SDS011;684;48.342;10.096;2023-02-28T11:01:20;13.20;;;9.43;;
1380;SDS011;684;48.342;10.096;2023-02-28T11:03:49;18.33;;;10.17;;
1380;SDS011;684;48.342;10.096;2023-02-28T11:06:17;14.83;;;10.37;;
1380;SDS011;684;48.342;10.096;2023-02-28T11:08:49;14.20;;;10.10;;
1380;SDS011;684;48.342;10.096;2023-02-28T11:11:17;14.10;;;9.37;;
1380;SDS011;684;48.342;10.096;2023-02-28T11:13:46;16.30;;;10.17;;
1380;SDS011;684;48.342;10.096;2023-02-28T11:16:16;14.70;;;9.50;;
1380;SDS011;684;48.342;10.096;2023-02-28T11:18:43;12.57;;;9.30;;
1380;SDS011;684;48.342;10.096;2023-02-28T11:21:18;14.00;;;9.83;;
1380;SDS011;684;48.342;10.096;2023-02-28T11:23:51;14.83;;;9.57;;
1380;SDS011;684;48.342;10.096;2023-02-28T11:26:40;15.87;;;9.93;;
1380;SDS011;684;48.342;10.096;2023-02-28T11:29:09;13.43;;;9.80;;
1380;SDS011;684;48.342;10.096;2023-02-28T11:31:49;12.73;;;9.07;;
1380;SDS011;684;48.342;10.096;2023-02-28T11:34:28;11.33;;;8.60;;
1380;SDS011;684;48.342;10.096;2023-02-28T11:36:56;12.27;;;8.90;;
1380;SDS011;684;48.342;10.096;2023-02-28T11:39:26;14.80;;;9.70;;
1380;SDS011;684;48.342;10.096;2023-02-28T11:42:00;12.80;;;9.70;;
1380;SDS011;684;48.342;10.096;2023-02-28T11:44:43;12.20;;;9.43;;
1380;SDS011;684;48.342;10.096;2023-02-28T11:47:23;14.93;;;9.80;;
1380;SDS011;684;48.342;10.096;2023-02-28T11:50:02;13.37;;;9.00;;
1380;SDS011;684;48.342;10.096;2023-02-28T11:52:40;15.27;;;10.27;;
1380;SDS011;684;48.342;10.096;2023-02-28T11:55:17;12.10;;;9.57;;
1380;SDS011;684;48.342;10.096;2023-02-28T11:57:55;15.60;;;10.17;;
1380;SDS011;684;48.342;10.096;2023-02-28T12:00:35;13.23;;;9.27;;
1380;SDS011;684;48.342;10.096;2023-02-28T12:03:19;13.13;;;9.33;;
1380;SDS011;684;48.342;10.096;2023-02-28T12:05:56;15.40;;;10.60;;
1380;SDS011;684;48.342;10.096;2023-02-28T12:08:37;12.90;;;9.83;;
1380;SDS011;684;48.342;10.096;2023-02-28T12:11:15;12.03;;;9.27;;
1380;SDS011;684;48.342;10.096;2023-02-28T12:13:56;14.60;;;9.50;;
1380;SDS011;684;48.342;10.096;2023-02-28T12:16:39;10.63;;;8.93;;
1380;SDS011;684;48.342;10.096;2023-02-28T12:19:16;13.13;;;9.33;;
1380;SDS011;684;48.342;10.096;2023-02-28T12:21:56;12.90;;;9.77;;
1380;SDS011;684;48.342;10.096;2023-02-28T12:27:38;13.10;;;9.20;;
1380;SDS011;684;48.342;10.096;2023-02-28T12:30:13;12.50;;;9.60;;
1380;SDS011;684;48.342;10.096;2023-02-28T12:32:45;13.33;;;10.47;;
1380;SDS011;684;48.342;10.096;2023-02-28T12:35:14;13.53;;;9.33;;
1380;SDS011;684;48.342;10.096;2023-02-28T12:37:47;16.13;;;11.73;;
1380;SDS011;684;48.342;10.096;2023-02-28T12:40:20;13.17;;;10.33;;
1380;SDS011;684;48.342;10.096;2023-02-28T12:42:50;19.00;;;10.10;;
1380;SDS011;684;48.342;10.096;2023-02-28T12:45:20;14.27;;;10.53;;
1380;SDS011;684;48.342;10.096;2023-02-28T12:47:50;13.70;;;8.70;;
1380;SDS011;684;48.342;10.096;2023-02-28T12:50:23;17.53;;;10.90;;
1380;SDS011;684;48.342;10.096;2023-02-28T12:52:52;13.70;;;9.80;;
1380;SDS011;684;48.342;10.096;2023-02-28T12:55:27;12.77;;;9.40;;
1380;SDS011;684;48.342;10.096;2023-02-28T12:58:05;14.30;;;9.50;;
1380;SDS011;684;48.342;10.096;2023-02-28T13:00:38;16.03;;;10.07;;
1380;SDS011;684;48.342;10.096;2023-02-28T13:03:35;14.80;;;9.60;;
1380;SDS011;684;48.342;10.096;2023-02-28T13:06:28;15.40;;;10.13;;
1380;SDS011;684;48.342;10.096;2023-02-28T13:09:08;15.07;;;10.40;;
1380;SDS011;684;48.342;10.096;2023-02-28T13:11:41;13.40;;;9.23;;
1380;SDS011;684;48.342;10.096;2023-02-28T13:14:22;16.27;;;10.37;;
1380;SDS011;684;48.342;10.096;2023-02-28T13:16:54;12.93;;;9.47;;
1380;SDS011;684;48.342;10.096;2023-02-28T13:19:24;14.00;;;9.23;;
1380;SDS011;684;48.342;10.096;2023-02-28T13:21:53;15.93;;;10.00;;
1380;SDS011;684;48.342;10.096;2023-02-28T13:24:37;14.53;;;9.83;;
1380;SDS011;684;48.342;10.096;2023-02-28T13:30:04;14.97;;;9.43;;
1380;SDS011;684;48.342;10.096;2023-02-28T13:33:19;14.17;;;9.03;;
1380;SDS011;684;48.342;10.096;2023-02-28T13:35:50;13.63;;;9.17;;
1380;SDS011;684;48.342;10.096;2023-02-28T13:38:34;16.03;;;10.00;;
1380;SDS011;684;48.342;10.096;2023-02-28T13:44:08;13.50;;;9.00;;
1380;SDS011;684;48.342;10.096;2023-02-28T13:47:15;13.37;;;9.13;;
1380;SDS011;684;48.342;10.096;2023-02-28T13:49:44;14.27;;;9.23;;
1380;SDS011;684;48.342;10.096;2023-02-28T13:52:12;15.47;;;9.20;;
1380;SDS011;684;48.342;10.096;2023-02-28T13:54:48;14.43;;;9.90;;
1380;SDS011;684;48.342;10.096;2023-02-28T13:57:28;12.97;;;9.57;;
1380;SDS011;684;48.342;10.096;2023-02-28T14:00:13;15.30;;;10.50;;
1380;SDS011;684;48.342;10.096;2023-02-28T14:02:54;14.37;;;9.40;;
1380;SDS011;684;48.342;10.096;2023-02-28T14:05:44;15.03;;;10.17;;
1380;SDS011;684;48.342;10.096;2023-02-28T14:08:12;14.40;;;9.77;;
1380;SDS011;684;48.342;10.096;2023-02-28T14:10:43;15.13;;;9.43;;
1380;SDS011;684;48.342;10.096;2023-02-28T14:13:13;13.40;;;9.70;;
1380;SDS011;684;48.342;10.096;2023-02-28T14:15:55;13.03;;;9.67;;
1380;SDS011;684;48.342;10.096;2023-02-28T14:18:28;14.57;;;10.10;;
1380;SDS011;684;48.342;10.096;2023-02-28T14:20:59;14.40;;;9.97;;
1380;SDS011;684;48.342;10.096;2023-02-28T14:23:46;15.50;;;10.57;;
1380;SDS011;684;48.342;10.096;2023-02-28T14:26:29;15.20;;;9.97;;
1380;SDS011;684;48.342;10.096;2023-02-28T14:29:09;14.30;;;9.20;;
1380;SDS011;684;48.342;10.096;2023-02-28T14:31:47;12.70;;;9.40;;
1380;SDS011;684;48.342;10.096;2023-02-28T14:34:26;16.03;;;9.73;;
1380;SDS011;684;48.342;10.096;2023-02-28T14:37:10;14.50;;;10.47;;
1380;SDS011;684;48.342;10.096;2023-02-28T14:39:42;16.60;;;10.50;;
1380;SDS011;684;48.342;10.096;2023-02-28T14:42:27;14.97;;;9.97;;
1380;SDS011;684;48.342;10.096;2023-02-28T14:44:55;15.03;;;10.17;;
1380;SDS011;684;48.342;10.096;2023-02-28T14:47:22;13.53;;;9.83;;
1380;SDS011;684;48.342;10.096;2023-02-28T14:49:52;14.63;;;9.97;;
1380;SDS011;684;48.342;10.096;2023-02-28T14:52:22;15.13;;;10.00;;
1380;SDS011;684;48.342;10.096;2023-02-28T14:54:52;14.13;;;9.50;;
1380;SDS011;684;48.342;10.096;2023-02-28T14:57:21;15.40;;;9.77;;
1380;SDS011;684;48.342;10.096;2023-02-28T14:59:56;14.03;;;9.80;;
1380;SDS011;684;48.342;10.096;2023-02-28T15:02:25;15.20;;;9.80;;
1380;SDS011;684;48.342;10.096;2023-02-28T15:04:57;14.50;;;9.97;;
1380;SDS011;684;48.342;10.096;2023-02-28T15:07:26;14.53;;;10.30;;
1380;SDS011;684;48.342;10.096;2023-02-28T15:10:11;15.20;;;10.07;;
1380;SDS011;684;48.342;10.096;2023-02-28T15:12:51;15.17;;;9.57;;
1380;SDS011;684;48.342;10.096;2023-02-28T15:15:21;15.20;;;10.13;;
1380;SDS011;684;48.342;10.096;2023-02-28T15:17:51;15.97;;;9.90;;
1380;SDS011;684;48.342;10.096;2023-02-28T15:20:22;14.07;;;9.83;;
1380;SDS011;684;48.342;10.096;2023-02-28T15:22:51;14.13;;;9.20;;
1380;SDS011;684;48.342;10.096;2023-02-28T15:25:22;14.87;;;10.13;;
1380;SDS011;684;48.342;10.096;2023-02-28T15:27:50;16.77;;;10.70;;
1380;SDS011;684;48.342;10.096;2023-02-28T15:30:20;14.03;;;9.43;;
1380;SDS011;684;48.342;10.096;2023-02-28T15:33:01;16.07;;;10.43;;
1380;SDS011;684;48.342;10.096;2023-02-28T15:35:32;15.50;;;9.93;;
1380;SDS011;684;48.342;10.096;2023-02-28T15:38:01;16.00;;;10.43;;
1380;SDS011;684;48.342;10.096;2023-02-28T15:40:31;14.80;;;9.30;;
1380;SDS011;684;48.342;10.096;2023-02-28T15:43:05;17.30;;;10.70;;
1380;SDS011;684;48.342;10.096;2023-02-28T15:45:35;16.10;;;10.17;;
1380;SDS011;684;48.342;10.096;2023-02-28T15:48:09;15.00;;;9.30;;
1380;SDS011;684;48.342;10.096;2023-02-28T15:50:44;15.77;;;9.30;;
1380;SDS011;684;48.342;10.096;2023-02-28T15:53:17;17.07;;;9.70;;